createdAt,value
2018-09-16T00:01:42.792Z,90.00
2018-09-16T00:04:11.794Z,89.70
2018-09-16T00:06:40.877Z,90.00
2018-09-16T00:09:10.921Z,90.20
2018-09-16T00:11:40.379Z,90.40
2018-09-16T00:14:09.492Z,90.50
2018-09-16T00:16:38.473Z,90.70
2018-09-16T00:19:07.484Z,91.40
2018-09-16T00:21:36.737Z,91.00
2018-09-16T00:24:05.841Z,90.70
2018-09-16T00:26:34.856Z,90.80
2018-09-16T00:29:03.977Z,91.00
2018-09-16T00:31:33.116Z,91.70
2018-09-16T00:34:02.043Z,91.80
2018-09-16T00:36:31.044Z,92.20
2018-09-16T00:39:00.224Z,92.40
2018-09-16T00:41:29.456Z,92.80
2018-09-16T00:43:58.524Z,92.50
2018-09-16T00:46:27.680Z,92.80
2018-09-16T00:48:56.799Z,92.20
2018-09-16T00:51:25.910Z,92.00
2018-09-16T00:53:55.024Z,91.90
2018-09-16T00:56:24.109Z,91.80
2018-09-16T00:58:53.295Z,91.90
2018-09-16T01:01:22.304Z,91.80
2018-09-16T01:03:51.375Z,91.80
2018-09-16T01:06:25.565Z,92.10
2018-09-16T01:08:54.579Z,92.00
2018-09-16T01:11:23.581Z,91.90
2018-09-16T01:13:52.663Z,92.40
2018-09-16T01:16:21.777Z,92.10
2018-09-16T01:18:50.933Z,92.10
2018-09-16T01:21:19.964Z,92.30
2018-09-16T01:23:48.947Z,92.60
2018-09-16T01:26:18.043Z,92.30
2018-09-16T01:28:47.171Z,92.40
2018-09-16T01:31:16.336Z,92.60
2018-09-16T01:33:45.352Z,92.60
2018-09-16T01:36:14.424Z,92.40
2018-09-16T01:38:48.531Z,92.60
2018-09-16T01:41:17.543Z,92.70
2018-09-16T01:43:46.651Z,92.70
2018-09-16T01:46:15.717Z,92.20
2018-09-16T01:48:45.145Z,92.50
2018-09-16T01:51:14.883Z,92.40
2018-09-16T01:53:43.884Z,92.30
2018-09-16T01:56:13.035Z,92.50
2018-09-16T01:58:42.607Z,92.40
2018-09-16T02:01:12.739Z,92.30
2018-09-16T02:03:42.047Z,91.90
2018-09-16T02:06:11.253Z,91.70
2018-09-16T02:08:40.383Z,92.20
2018-09-16T02:11:09.536Z,92.40
2018-09-16T02:13:38.624Z,92.90
2018-09-16T02:16:07.604Z,93.50
2018-09-16T02:18:36.743Z,93.60
2018-09-16T02:21:05.731Z,93.70
2018-09-16T02:23:34.809Z,93.90
2018-09-16T02:26:03.911Z,93.60
2018-09-16T02:28:33.089Z,93.60
2018-09-16T02:31:02.180Z,93.60
2018-09-16T02:33:31.310Z,93.60
2018-09-16T02:36:00.278Z,93.40
2018-09-16T02:38:29.348Z,93.70
2018-09-16T02:40:58.455Z,93.90
2018-09-16T02:43:27.646Z,94.00
2018-09-16T02:45:56.699Z,94.00
2018-09-16T02:48:25.852Z,93.70
2018-09-16T02:50:54.957Z,94.00
2018-09-16T02:53:23.927Z,94.60
2018-09-16T02:55:53.139Z,94.50
2018-09-16T02:58:22.259Z,95.10
2018-09-16T03:00:51.424Z,93.70
2018-09-16T03:03:20.541Z,94.60
2018-09-16T03:05:50.179Z,94.60
2018-09-16T03:08:20.300Z,94.40
2018-09-16T03:10:49.380Z,94.30
2018-09-16T03:13:18.536Z,94.80
2018-09-16T03:15:47.854Z,94.80
2018-09-16T03:18:16.923Z,94.60
2018-09-16T03:20:46.008Z,94.50
2018-09-16T03:23:15.158Z,94.40
2018-09-16T03:25:44.207Z,94.30
2018-09-16T03:28:13.300Z,94.60
2018-09-16T03:30:42.384Z,94.40
2018-09-16T03:33:11.425Z,94.90
2018-09-16T03:35:40.433Z,94.90
2018-09-16T03:38:09.364Z,95.30
2018-09-16T03:40:38.482Z,95.20
2018-09-16T03:43:07.592Z,95.80
2018-09-16T03:45:36.668Z,95.60
2018-09-16T03:48:05.924Z,96.00
2018-09-16T03:50:35.089Z,95.20
2018-09-16T03:53:04.037Z,95.40
2018-09-16T03:55:33.145Z,96.20
2018-09-16T03:58:02.228Z,95.80
2018-09-16T04:00:31.384Z,95.80
2018-09-16T04:03:00.531Z,96.50
2018-09-16T04:05:29.726Z,96.40
2018-09-16T04:07:58.836Z,96.40
2018-09-16T04:10:27.948Z,95.90
2018-09-16T04:12:57.063Z,95.80
2018-09-16T04:15:26.196Z,96.10
2018-09-16T04:17:55.300Z,96.50
2018-09-16T04:20:24.396Z,96.70
2018-09-16T04:22:53.500Z,97.00
2018-09-16T04:25:22.620Z,97.00
2018-09-16T04:27:51.688Z,97.00
2018-09-16T04:30:20.785Z,97.30
2018-09-16T04:32:49.860Z,97.30
2018-09-16T04:35:18.992Z,97.80
2018-09-16T04:37:47.988Z,97.40
2018-09-16T04:40:17.057Z,97.60
2018-09-16T04:42:46.033Z,97.50
2018-09-16T04:45:15.063Z,97.50
2018-09-16T04:47:44.044Z,97.60
2018-09-16T04:50:13.172Z,98.00
2018-09-16T04:52:42.229Z,98.00
2018-09-16T04:55:11.380Z,97.80
2018-09-16T04:57:40.407Z,97.60
2018-09-16T05:00:09.388Z,97.80
2018-09-16T05:02:38.783Z,98.10
2018-09-16T05:05:07.732Z,98.10
2018-09-16T05:07:36.871Z,98.30
2018-09-16T05:10:06.014Z,98.60
2018-09-16T05:12:35.105Z,98.40
2018-09-16T05:15:04.527Z,98.80
2018-09-16T05:17:33.491Z,98.50
2018-09-16T05:20:02.485Z,98.60
2018-09-16T05:22:31.608Z,98.80
2018-09-16T05:25:00.548Z,98.80
2018-09-16T05:27:29.683Z,99.20
2018-09-16T05:29:58.755Z,99.20
2018-09-16T05:32:27.827Z,99.10
2018-09-16T05:34:56.936Z,99.10
2018-09-16T05:37:25.926Z,98.80
2018-09-16T05:39:55.066Z,98.30
2018-09-16T05:42:24.028Z,98.60
2018-09-16T05:44:52.991Z,98.90
2018-09-16T05:47:22.018Z,99.70
2018-09-16T05:49:51.159Z,99.90
2018-09-16T05:52:20.299Z,99.90
2018-09-16T05:54:49.341Z,99.90
2018-09-16T05:57:18.582Z,99.40
2018-09-16T05:59:47.676Z,99.70
2018-09-16T06:02:16.856Z,99.90
2018-09-16T06:04:45.969Z,99.90
2018-09-16T06:07:14.984Z,99.90
2018-09-16T06:09:44.057Z,99.90
2018-09-16T06:12:13.152Z,99.90
2018-09-16T06:14:42.281Z,99.90
2018-09-16T06:17:11.296Z,99.90
2018-09-16T06:19:40.435Z,99.90
2018-09-16T06:22:09.343Z,99.90
2018-09-16T06:24:38.532Z,99.90
2018-09-16T06:27:07.585Z,99.90
2018-09-16T06:29:36.693Z,99.90
2018-09-16T06:32:05.820Z,99.90
2018-09-16T06:34:34.839Z,99.90
2018-09-16T06:37:03.893Z,99.90
2018-09-16T06:39:32.875Z,99.90
2018-09-16T06:42:02.013Z,99.90
2018-09-16T06:44:30.975Z,99.90
2018-09-16T06:47:00.078Z,99.90
2018-09-16T06:49:29.171Z,99.90
2018-09-16T06:51:58.435Z,99.90
2018-09-16T06:54:27.608Z,99.90
2018-09-16T06:56:56.752Z,99.90
2018-09-16T06:59:25.841Z,99.90
2018-09-16T07:01:54.959Z,99.90
2018-09-16T07:04:24.044Z,99.90
2018-09-16T07:06:53.161Z,99.90
2018-09-16T07:09:22.101Z,99.90
2018-09-16T07:11:51.134Z,99.90
2018-09-16T07:14:20.163Z,99.90
2018-09-16T07:16:49.219Z,99.90
2018-09-16T07:19:18.235Z,99.90
2018-09-16T07:21:47.208Z,99.90
2018-09-16T07:24:16.324Z,99.90
2018-09-16T07:26:45.418Z,99.90
2018-09-16T07:29:14.741Z,99.90
2018-09-16T07:31:48.227Z,99.90
2018-09-16T07:34:17.364Z,99.90
2018-09-16T07:36:46.908Z,99.90
2018-09-16T07:39:15.990Z,99.90
2018-09-16T07:41:45.102Z,99.90
2018-09-16T07:44:14.200Z,99.90
2018-09-16T07:46:43.259Z,99.90
2018-09-16T07:49:12.364Z,99.90
2018-09-16T07:51:41.549Z,99.90
2018-09-16T07:54:10.666Z,99.90
2018-09-16T07:56:39.669Z,99.90
2018-09-16T07:59:08.639Z,99.90
2018-09-16T08:01:37.640Z,99.90
2018-09-16T08:04:06.762Z,99.90
2018-09-16T08:06:35.825Z,99.90
2018-09-16T08:09:06.549Z,99.90
2018-09-16T08:11:35.655Z,99.90
2018-09-16T08:14:06.574Z,99.90
2018-09-16T08:16:35.756Z,99.90
2018-09-16T08:19:04.883Z,99.90
2018-09-16T08:21:34.014Z,99.90
2018-09-16T08:24:03.246Z,99.90
2018-09-16T08:26:32.574Z,99.90
2018-09-16T08:29:01.558Z,99.90
2018-09-16T08:31:30.602Z,99.90
2018-09-16T08:33:59.680Z,99.90
2018-09-16T08:36:28.831Z,99.90
2018-09-16T08:38:57.940Z,99.90
2018-09-16T08:41:27.140Z,99.90
2018-09-16T08:43:56.234Z,99.90
2018-09-16T08:46:25.369Z,99.90
2018-09-16T08:48:54.509Z,99.90
2018-09-16T08:51:23.534Z,99.60
2018-09-16T08:53:52.627Z,99.90
2018-09-16T08:56:21.621Z,99.90
2018-09-16T08:58:50.841Z,99.80
2018-09-16T09:01:19.922Z,99.30
2018-09-16T09:03:49.000Z,99.20
2018-09-16T09:06:18.090Z,99.40
2018-09-16T09:08:47.201Z,98.90
2018-09-16T09:11:16.337Z,98.80
2018-09-16T09:13:45.389Z,99.00
2018-09-16T09:16:14.391Z,99.20
2018-09-16T09:19:55.508Z,99.70
2018-09-16T09:22:24.789Z,98.50
2018-09-16T09:25:51.265Z,97.90
2018-09-16T09:28:20.297Z,97.90
2018-09-16T09:30:49.271Z,98.00
2018-09-16T09:33:18.472Z,96.60
2018-09-16T09:35:47.473Z,94.60
2018-09-16T09:38:16.463Z,94.80
2018-09-16T09:40:45.576Z,94.40
2018-09-16T09:43:14.647Z,94.10
2018-09-16T09:45:43.918Z,95.10
2018-09-16T09:48:13.127Z,94.00
2018-09-16T09:50:42.227Z,93.60
2018-09-16T09:53:11.460Z,93.90
2018-09-16T09:55:40.629Z,92.80
2018-09-16T09:58:09.723Z,93.00
2018-09-16T10:00:44.349Z,92.90
2018-09-16T10:03:13.465Z,92.00
2018-09-16T10:05:42.512Z,91.90
2018-09-16T10:08:11.614Z,91.50
2018-09-16T10:10:40.719Z,90.80
2018-09-16T10:13:09.901Z,90.90
2018-09-16T10:15:39.068Z,89.10
2018-09-16T10:18:08.207Z,90.40
2018-09-16T10:20:37.402Z,90.10
2018-09-16T10:23:06.918Z,90.60
2018-09-16T10:25:36.005Z,89.00
2018-09-16T10:28:05.111Z,87.60
2018-09-16T10:30:34.111Z,89.60
2018-09-16T10:33:03.201Z,87.80
2018-09-16T10:35:32.397Z,88.00
2018-09-16T10:38:01.479Z,88.00
2018-09-16T10:40:30.600Z,87.70
2018-09-16T10:42:59.698Z,89.40
2018-09-16T10:45:28.694Z,85.70
2018-09-16T10:47:57.787Z,85.80
2018-09-16T10:50:26.992Z,85.00
2018-09-16T10:52:56.053Z,83.60
2018-09-16T10:55:25.166Z,79.70
2018-09-16T10:57:54.243Z,82.10
2018-09-16T11:00:23.357Z,80.30
2018-09-16T11:02:52.478Z,79.70
2018-09-16T11:05:21.640Z,76.00
2018-09-16T11:07:50.769Z,74.60
2018-09-16T11:10:19.917Z,74.40
2018-09-16T11:12:49.008Z,74.90
2018-09-16T11:15:18.042Z,73.00
2018-09-16T11:17:47.199Z,71.60
2018-09-16T11:20:16.498Z,71.00
2018-09-16T11:22:45.601Z,70.30
2018-09-16T11:25:14.586Z,70.60
2018-09-16T11:27:43.597Z,71.90
2018-09-16T11:30:12.665Z,70.30
2018-09-16T11:32:41.667Z,68.50
2018-09-16T11:35:10.768Z,69.60
2018-09-16T11:37:39.750Z,69.80
2018-09-16T11:40:08.888Z,70.30
2018-09-16T11:42:37.957Z,70.40
2018-09-16T11:45:07.141Z,68.30
2018-09-16T11:47:36.347Z,69.50
2018-09-16T11:50:05.771Z,67.90
2018-09-16T11:52:34.865Z,69.10
2018-09-16T11:55:03.914Z,67.20
2018-09-16T11:57:33.028Z,65.50
2018-09-16T12:00:01.367Z,65.80
2018-09-16T12:02:29.422Z,64.30
2018-09-16T12:04:57.612Z,63.00
2018-09-16T12:07:26.745Z,63.50
2018-09-16T12:09:55.836Z,64.20
2018-09-16T12:12:24.820Z,62.30
2018-09-16T12:14:53.920Z,63.40
2018-09-16T12:17:23.041Z,60.60
2018-09-16T12:19:52.100Z,62.10
2018-09-16T12:22:20.158Z,59.60
2018-09-16T12:24:48.216Z,58.70
2018-09-16T12:27:16.286Z,58.90
2018-09-16T12:29:44.465Z,59.50
2018-09-16T12:32:12.517Z,58.40
2018-09-16T12:34:40.602Z,59.40
2018-09-16T12:37:08.672Z,58.80
2018-09-16T12:39:36.742Z,58.80
2018-09-16T12:42:04.915Z,58.50
2018-09-16T12:44:33.048Z,57.40
2018-09-16T12:47:01.137Z,57.10
2018-09-16T12:49:29.187Z,57.00
2018-09-16T12:51:57.307Z,56.50
2018-09-16T12:54:25.333Z,56.80
2018-09-16T12:56:53.539Z,56.50
2018-09-16T12:59:21.721Z,56.80
2018-09-16T13:01:49.911Z,56.80
2018-09-16T13:04:18.016Z,56.60
2018-09-16T13:06:46.244Z,56.10
2018-09-16T13:09:14.307Z,55.60
2018-09-16T13:11:42.481Z,55.90
2018-09-16T13:14:10.552Z,55.10
2018-09-16T13:16:38.600Z,56.20
2018-09-16T13:19:06.662Z,55.80
2018-09-16T13:21:34.831Z,55.20
2018-09-16T13:24:03.312Z,55.60
2018-09-16T13:26:31.521Z,55.60
2018-09-16T13:28:59.592Z,54.80
2018-09-16T13:31:27.659Z,55.00
2018-09-16T13:33:55.634Z,55.50
2018-09-16T13:36:23.701Z,55.10
2018-09-16T13:38:52.836Z,54.80
2018-09-16T13:41:21.928Z,54.80
2018-09-16T13:43:51.027Z,54.80
2018-09-16T13:46:20.124Z,54.60
2018-09-16T13:48:49.251Z,54.80
2018-09-16T13:51:18.370Z,55.00
2018-09-16T13:53:47.405Z,54.90
2018-09-16T13:56:16.465Z,55.10
2018-09-16T13:58:45.607Z,55.40
2018-09-16T14:01:14.614Z,54.70
2018-09-16T14:03:44.363Z,54.80
2018-09-16T14:06:13.387Z,55.00
2018-09-16T14:08:42.484Z,54.00
2018-09-16T14:11:11.815Z,53.90
2018-09-16T14:13:40.778Z,53.00
2018-09-16T14:16:09.873Z,53.70
2018-09-16T14:18:38.972Z,54.10
2018-09-16T14:21:08.201Z,53.00
2018-09-16T14:23:37.253Z,54.20
2018-09-16T14:26:06.392Z,53.80
2018-09-16T14:28:35.653Z,53.60
2018-09-16T14:31:04.641Z,53.10
2018-09-16T14:33:33.766Z,52.50
2018-09-16T14:36:02.732Z,52.70
2018-09-16T14:38:31.863Z,52.60
2018-09-16T14:41:00.888Z,52.10
2018-09-16T14:43:29.911Z,51.80
2018-09-16T14:45:58.919Z,52.20
2018-09-16T14:48:27.988Z,52.30
2018-09-16T14:50:56.949Z,52.50
2018-09-16T14:53:26.100Z,51.90
2018-09-16T14:55:55.389Z,52.10
2018-09-16T14:58:24.503Z,52.40
2018-09-16T15:00:53.845Z,51.90
2018-09-16T15:03:23.216Z,51.80
2018-09-16T15:05:52.376Z,52.10
2018-09-16T15:08:21.482Z,51.70
2018-09-16T15:10:50.571Z,51.30
2018-09-16T15:13:19.643Z,51.90
2018-09-16T15:15:48.669Z,51.40
2018-09-16T15:18:17.770Z,51.90
2018-09-16T15:20:47.099Z,51.60
2018-09-16T15:23:16.247Z,51.40
2018-09-16T15:25:45.371Z,51.30
2018-09-16T15:28:14.545Z,52.10
2018-09-16T15:30:43.759Z,51.70
2018-09-16T15:33:12.874Z,51.00
2018-09-16T15:35:42.039Z,51.70
2018-09-16T15:38:11.142Z,51.20
2018-09-16T15:40:40.223Z,51.40
2018-09-16T15:43:09.320Z,51.30
2018-09-16T15:45:38.433Z,50.60
2018-09-16T15:48:07.622Z,51.00
2018-09-16T15:50:36.705Z,51.30
2018-09-16T15:53:05.835Z,51.00
2018-09-16T15:55:34.893Z,51.90
2018-09-16T15:58:04.049Z,51.90
2018-09-16T16:00:33.410Z,51.70
2018-09-16T16:03:02.509Z,52.10
2018-09-16T16:05:31.541Z,52.00
2018-09-16T16:08:00.684Z,52.20
2018-09-16T16:10:29.714Z,52.40
2018-09-16T16:12:58.769Z,52.50
2018-09-16T16:15:27.849Z,52.30
2018-09-16T16:17:56.961Z,52.70
2018-09-16T16:20:26.149Z,52.80
2018-09-16T16:22:55.260Z,53.00
2018-09-16T16:25:24.151Z,53.40
2018-09-16T16:27:53.241Z,53.20
2018-09-16T16:30:22.347Z,53.30
2018-09-16T16:32:51.516Z,53.20
2018-09-16T16:35:20.759Z,53.30
2018-09-16T16:37:49.824Z,53.70
2018-09-16T16:40:18.793Z,53.90
2018-09-16T16:42:48.017Z,54.10
2018-09-16T16:45:17.194Z,54.60
2018-09-16T16:47:46.308Z,54.80
2018-09-16T16:50:15.631Z,54.90
2018-09-16T16:52:44.799Z,54.90
2018-09-16T16:55:14.017Z,54.90
2018-09-16T16:57:43.428Z,55.80
2018-09-16T17:02:20.696Z,55.20
2018-09-16T17:04:49.688Z,55.70
2018-09-16T17:07:18.752Z,55.90
2018-09-16T17:09:47.765Z,56.50
2018-09-16T17:12:16.802Z,56.10
2018-09-16T17:14:45.915Z,56.30
2018-09-16T17:17:15.032Z,56.40
2018-09-16T17:19:44.137Z,56.50
2018-09-16T17:22:13.269Z,56.60
2018-09-16T17:24:42.336Z,56.70
2018-09-16T17:27:12.194Z,56.80
2018-09-16T17:29:41.264Z,56.90
2018-09-16T17:32:10.342Z,57.00
2018-09-16T17:34:39.344Z,57.20
2018-09-16T17:37:08.621Z,57.50
2018-09-16T17:39:38.475Z,57.80
2018-09-16T17:42:07.639Z,57.70
2018-09-16T17:44:36.617Z,57.70
2018-09-16T17:47:05.584Z,57.90
2018-09-16T17:49:34.934Z,57.90
2018-09-16T17:52:04.010Z,58.10
2018-09-16T17:54:33.209Z,58.20
2018-09-16T17:57:02.612Z,58.20
2018-09-16T17:59:31.713Z,58.30
2018-09-16T18:02:00.859Z,58.30
2018-09-16T18:04:30.002Z,58.40
2018-09-16T18:06:59.204Z,58.50
2018-09-16T18:09:28.294Z,58.70
2018-09-16T18:11:57.293Z,58.70
2018-09-16T18:15:06.380Z,58.90
2018-09-16T18:17:35.842Z,58.50
2018-09-16T18:20:04.945Z,59.00
2018-09-16T18:22:33.172Z,59.00
2018-09-16T18:25:02.302Z,59.00
2018-09-16T18:27:31.419Z,59.10
2018-09-16T18:30:00.623Z,59.10
2018-09-16T18:32:28.714Z,59.10
2018-09-16T18:34:56.850Z,59.10
2018-09-16T18:37:26.213Z,59.50
2018-09-16T18:39:55.460Z,59.60
2018-09-16T18:42:24.512Z,59.60
2018-09-16T18:44:53.792Z,59.70
2018-09-16T18:47:23.010Z,59.90
2018-09-16T18:49:51.148Z,59.80
2018-09-16T18:52:19.422Z,59.70
2018-09-16T18:54:48.470Z,60.00
2018-09-16T18:57:17.581Z,60.00
2018-09-16T18:59:45.650Z,60.20
2018-09-16T19:02:13.740Z,60.10
2018-09-16T19:04:41.930Z,60.60
2018-09-16T19:07:10.204Z,61.30
2018-09-16T19:09:38.252Z,61.50
2018-09-16T19:12:06.339Z,61.80
2018-09-16T19:14:34.517Z,61.90
2018-09-16T19:17:02.703Z,61.80
2018-09-16T19:19:30.736Z,61.90
2018-09-16T19:21:59.038Z,62.20
2018-09-16T19:24:27.524Z,61.70
2018-09-16T19:26:55.572Z,62.70
2018-09-16T19:29:23.728Z,62.90
2018-09-16T19:31:51.836Z,63.50
2018-09-16T19:34:20.044Z,63.70
2018-09-16T19:36:48.210Z,63.40
2018-09-16T19:39:16.457Z,63.50
2018-09-16T19:41:44.644Z,63.60
2018-09-16T19:44:12.695Z,64.10
2018-09-16T19:46:40.890Z,64.20
2018-09-16T19:49:08.936Z,64.00
2018-09-16T19:51:37.120Z,64.40
2018-09-16T19:54:05.292Z,64.60
2018-09-16T19:56:33.397Z,64.80
2018-09-16T19:59:01.547Z,64.30
2018-09-16T20:01:29.704Z,64.50
2018-09-16T20:03:57.988Z,65.00
2018-09-16T20:06:26.878Z,65.30
2018-09-16T20:08:54.989Z,65.00
2018-09-16T20:11:23.027Z,65.30
2018-09-16T20:13:51.194Z,65.30
2018-09-16T20:16:19.538Z,65.80
2018-09-16T20:18:47.737Z,65.80
2018-09-16T20:21:15.786Z,66.20
2018-09-16T20:23:44.038Z,66.40
2018-09-16T20:26:12.402Z,66.40
2018-09-16T20:28:40.700Z,66.60
2018-09-16T20:31:08.913Z,66.60
2018-09-16T20:33:37.082Z,67.20
2018-09-16T20:36:05.145Z,67.40
2018-09-16T20:38:33.275Z,67.30
2018-09-16T20:41:01.503Z,67.80
2018-09-16T20:43:29.659Z,68.00
2018-09-16T20:45:57.743Z,67.80
2018-09-16T20:48:25.915Z,68.00
2018-09-16T20:50:53.987Z,68.10
2018-09-16T20:53:22.040Z,68.30
2018-09-16T20:55:50.540Z,68.60
2018-09-16T20:58:18.596Z,69.10
2018-09-16T21:00:46.722Z,69.70
2018-09-16T21:03:14.861Z,69.50
2018-09-16T21:05:43.027Z,69.30
2018-09-16T21:08:11.137Z,70.10
2018-09-16T21:10:39.376Z,70.00
2018-09-16T21:13:07.551Z,69.90
2018-09-16T21:15:35.716Z,69.50
2018-09-16T21:18:03.747Z,70.60
2018-09-16T21:20:32.066Z,70.80
2018-09-16T21:23:00.193Z,70.30
2018-09-16T21:25:28.352Z,71.20
2018-09-16T21:27:57.449Z,71.60
2018-09-16T21:30:25.581Z,71.70
2018-09-16T21:32:54.748Z,71.30
2018-09-16T21:35:23.935Z,71.40
2018-09-16T21:37:53.024Z,72.20
2018-09-16T21:40:22.096Z,72.70
2018-09-16T21:42:51.190Z,72.00
2018-09-16T21:45:20.535Z,72.50
2018-09-16T21:47:49.708Z,73.00
2018-09-16T21:50:18.708Z,72.70
2018-09-16T21:52:47.776Z,72.40
2018-09-16T21:55:16.887Z,73.00
2018-09-16T21:57:46.022Z,73.90
2018-09-16T22:00:15.170Z,72.30
2018-09-16T22:02:44.278Z,72.30
2018-09-16T22:05:13.348Z,74.60
2018-09-16T22:07:42.343Z,74.40
2018-09-16T22:10:11.472Z,74.50
2018-09-16T22:12:40.435Z,74.20
2018-09-16T22:15:09.549Z,74.10
2018-09-16T22:17:38.540Z,74.30
2018-09-16T22:20:07.600Z,73.80
2018-09-16T22:22:36.737Z,75.10
2018-09-16T22:25:05.885Z,75.10
2018-09-16T22:27:35.108Z,74.60
2018-09-16T22:30:04.406Z,74.30
2018-09-16T22:32:33.432Z,74.10
2018-09-16T22:35:02.507Z,74.20
2018-09-16T22:37:31.517Z,74.10
2018-09-16T22:40:00.588Z,74.20
2018-09-16T22:42:29.682Z,74.20
2018-09-16T22:44:58.783Z,73.70
2018-09-16T22:47:27.900Z,73.80
2018-09-16T22:49:56.959Z,74.10
2018-09-16T22:52:25.968Z,74.10
2018-09-16T22:54:55.149Z,74.40
2018-09-16T22:57:24.348Z,74.50
2018-09-16T22:59:53.568Z,74.20
2018-09-16T23:02:22.536Z,74.70
2018-09-16T23:04:51.728Z,74.60
2018-09-16T23:07:21.053Z,74.50
2018-09-16T23:09:50.023Z,74.60
2018-09-16T23:12:19.133Z,75.40
2018-09-16T23:14:48.212Z,76.30
2018-09-16T23:17:17.219Z,77.00
2018-09-16T23:19:46.200Z,77.80
2018-09-16T23:22:15.192Z,77.30
2018-09-16T23:24:44.297Z,76.80
2018-09-16T23:27:13.379Z,77.80
2018-09-16T23:29:42.469Z,77.50
2018-09-16T23:32:11.454Z,77.60
2018-09-16T23:34:40.559Z,77.40
2018-09-16T23:37:09.667Z,77.50
2018-09-16T23:39:38.655Z,77.30
2018-09-16T23:42:08.020Z,77.70
2018-09-16T23:44:37.139Z,77.80
2018-09-16T23:47:06.679Z,77.50
2018-09-16T23:49:35.767Z,78.00
2018-09-16T23:52:04.961Z,78.20
2018-09-16T23:54:34.033Z,77.40
2018-09-16T23:57:03.119Z,77.90
2018-09-16T23:59:32.227Z,78.00
